createdAt,value
2022-10-24T00:00:48.260Z,51.216171
2022-10-24T00:01:48.150Z,51.216091
2022-10-24T00:02:48.196Z,51.215862
2022-10-24T00:03:48.151Z,51.215950
2022-10-24T00:04:48.132Z,51.216000
2022-10-24T00:05:48.123Z,51.216221
2022-10-24T00:06:48.126Z,51.216270
2022-10-24T00:07:48.098Z,51.215870
2022-10-24T00:08:48.091Z,51.215897
2022-10-24T00:09:48.086Z,51.216000
2022-10-24T00:10:48.077Z,51.216175
2022-10-24T00:11:48.079Z,51.215923
2022-10-24T00:12:48.072Z,51.216042
2022-10-24T00:13:48.061Z,51.216095
2022-10-24T00:14:48.047Z,51.216225
2022-10-24T00:15:48.039Z,51.216114
2022-10-24T00:16:48.039Z,51.216019
2022-10-24T00:17:48.031Z,51.215916
2022-10-24T00:18:48.019Z,51.215878
2022-10-24T00:19:48.026Z,51.215839
2022-10-24T00:20:48.022Z,51.215786
2022-10-24T00:21:48.012Z,51.215927
2022-10-24T00:22:47.987Z,51.215916
2022-10-24T00:23:47.972Z,51.215977
2022-10-24T00:24:47.970Z,51.215839
2022-10-24T00:25:47.979Z,51.215939
2022-10-24T00:26:47.966Z,51.215984
2022-10-24T00:27:47.950Z,51.216015
2022-10-24T00:28:47.988Z,51.216076
2022-10-24T00:29:47.936Z,51.215996
2022-10-24T00:30:47.926Z,51.216057
2022-10-24T00:31:47.934Z,51.215935
2022-10-24T00:32:47.910Z,51.215851
2022-10-24T00:33:47.903Z,51.215950
2022-10-24T00:34:47.898Z,51.215832
2022-10-24T00:35:47.901Z,51.215927
2022-10-24T00:36:47.888Z,51.215946
2022-10-24T00:37:48.115Z,51.215885
2022-10-24T00:38:47.870Z,51.215828
2022-10-24T00:39:47.858Z,51.215824
2022-10-24T00:40:47.850Z,51.215961
2022-10-24T00:41:47.882Z,51.216110
2022-10-24T00:42:47.830Z,51.216248
2022-10-24T00:43:47.826Z,51.216171
2022-10-24T00:44:47.818Z,51.216034
2022-10-24T00:45:47.815Z,51.216072
2022-10-24T00:46:47.818Z,51.215939
2022-10-24T00:47:47.806Z,51.215988
2022-10-24T00:48:47.790Z,51.216110
2022-10-24T00:49:47.782Z,51.216076
2022-10-24T00:50:47.777Z,51.216187
2022-10-24T00:51:47.782Z,51.216225
2022-10-24T00:52:47.761Z,51.216209
2022-10-24T00:53:47.876Z,51.216015
2022-10-24T00:54:47.758Z,51.215782
2022-10-24T00:55:47.746Z,51.215794
2022-10-24T00:56:47.753Z,51.215912
2022-10-24T00:57:47.737Z,51.215927
2022-10-24T00:58:47.713Z,51.215931
2022-10-24T00:59:47.723Z,51.216152
2022-10-24T01:00:47.748Z,51.216259
2022-10-24T01:01:47.756Z,51.216084
2022-10-24T01:02:47.705Z,51.216011
2022-10-24T01:03:47.682Z,51.216007
2022-10-24T01:04:47.680Z,51.215942
2022-10-24T01:05:47.678Z,51.216007
2022-10-24T01:06:47.662Z,51.216221
2022-10-24T01:07:47.669Z,51.216206
2022-10-24T01:08:47.644Z,51.216328
2022-10-24T01:09:47.650Z,51.216175
2022-10-24T01:10:47.639Z,51.216057
2022-10-24T01:11:47.690Z,51.216076
2022-10-24T01:12:47.788Z,51.216232
2022-10-24T01:13:47.620Z,51.216305
2022-10-24T01:14:47.627Z,51.216595
2022-10-24T01:15:47.606Z,51.216457
2022-10-24T01:16:47.601Z,51.216412
2022-10-24T01:17:47.622Z,51.216183
2022-10-24T01:18:47.652Z,51.216133
2022-10-24T01:19:47.589Z,51.216091
2022-10-24T01:20:47.559Z,51.216103
2022-10-24T01:21:47.581Z,51.216099
2022-10-24T01:22:47.640Z,51.216213
2022-10-24T01:23:47.548Z,51.216255
2022-10-24T01:24:47.541Z,51.216248
2022-10-24T01:25:47.565Z,51.216087
2022-10-24T01:26:47.538Z,51.216141
2022-10-24T01:27:47.816Z,51.216194
2022-10-24T01:28:47.609Z,51.216209
2022-10-24T01:29:47.520Z,51.216099
2022-10-24T01:30:47.494Z,51.216137
2022-10-24T01:31:48.493Z,51.216057
2022-10-24T01:32:47.485Z,51.216194
2022-10-24T01:33:47.517Z,51.216259
2022-10-24T01:34:47.468Z,51.216225
2022-10-24T01:35:47.476Z,51.216263
2022-10-24T01:36:47.459Z,51.216110
2022-10-24T01:37:47.542Z,51.216122
2022-10-24T01:38:47.441Z,51.216095
2022-10-24T01:39:47.457Z,51.216110
2022-10-24T01:40:47.449Z,51.216190
2022-10-24T01:41:47.412Z,51.216129
2022-10-24T01:42:47.412Z,51.216122
2022-10-24T01:43:47.466Z,51.216232
2022-10-24T01:44:47.397Z,51.216125
2022-10-24T01:45:47.388Z,51.216103
2022-10-24T01:46:47.397Z,51.216122
2022-10-24T01:47:47.565Z,51.216080
2022-10-24T01:48:47.370Z,51.215996
2022-10-24T01:49:47.361Z,51.216011
2022-10-24T01:50:47.373Z,51.216003
2022-10-24T01:51:47.341Z,51.215969
2022-10-24T01:52:47.649Z,51.215878
2022-10-24T01:53:47.337Z,51.216042
2022-10-24T01:54:47.329Z,51.215988
2022-10-24T01:55:47.497Z,51.216080
2022-10-24T01:56:47.320Z,51.215973
2022-10-24T01:57:47.337Z,51.216000
2022-10-24T01:58:47.300Z,51.215954
2022-10-24T01:59:47.305Z,51.216034
2022-10-24T02:00:48.307Z,51.216076
2022-10-24T02:01:47.419Z,51.215996
2022-10-24T02:02:47.571Z,51.215881
2022-10-24T02:03:47.265Z,51.216114
2022-10-24T02:04:47.262Z,51.216152
2022-10-24T02:05:47.260Z,51.216225
2022-10-24T02:06:47.269Z,51.216141
2022-10-24T02:07:47.528Z,51.216152
2022-10-24T02:08:47.229Z,51.216152
2022-10-24T02:09:47.232Z,51.216175
2022-10-24T02:10:47.216Z,51.216141
2022-10-24T02:11:47.300Z,51.216099
2022-10-24T02:12:47.513Z,51.216213
2022-10-24T02:13:47.196Z,51.216175
2022-10-24T02:14:47.193Z,51.216164
2022-10-24T02:15:47.190Z,51.216164
2022-10-24T02:16:47.203Z,51.216228
2022-10-24T02:17:47.341Z,51.216187
2022-10-24T02:18:47.355Z,51.216156
2022-10-24T02:19:47.169Z,51.216156
2022-10-24T02:20:47.152Z,51.216129
2022-10-24T02:21:47.148Z,51.216125
2022-10-24T02:22:47.139Z,51.216209
2022-10-24T02:23:47.381Z,51.216209
2022-10-24T02:24:47.137Z,51.216103
2022-10-24T02:25:47.216Z,51.216106
2022-10-24T02:26:47.336Z,51.216095
2022-10-24T02:27:47.306Z,51.216114
2022-10-24T02:28:47.109Z,51.216122
2022-10-24T02:29:47.112Z,51.216183
2022-10-24T02:30:47.090Z,51.216145
2022-10-24T02:31:47.105Z,51.216183
2022-10-24T02:32:47.089Z,51.216141
2022-10-24T02:33:47.072Z,51.216141
2022-10-24T02:34:47.069Z,51.216084
2022-10-24T02:35:47.063Z,51.216068
2022-10-24T02:36:47.049Z,51.216164
2022-10-24T02:37:47.542Z,51.216110
2022-10-24T02:38:47.057Z,51.216125
2022-10-24T02:39:47.032Z,51.216103
2022-10-24T02:40:47.031Z,51.216179
2022-10-24T02:41:47.028Z,51.216076
2022-10-24T02:42:47.027Z,51.216068
2022-10-24T02:43:47.012Z,51.216072
2022-10-24T02:44:47.023Z,51.216084
2022-10-24T02:45:46.992Z,51.216007
2022-10-24T02:46:46.987Z,51.216030
2022-10-24T02:47:47.298Z,51.216072
2022-10-24T02:48:46.972Z,51.216076
2022-10-24T02:49:46.967Z,51.216133
2022-10-24T02:50:47.043Z,51.216198
2022-10-24T02:51:46.967Z,51.216148
2022-10-24T02:52:47.228Z,51.216118
2022-10-24T02:53:46.944Z,51.215984
2022-10-24T02:54:46.936Z,51.216019
2022-10-24T02:55:46.920Z,51.216045
2022-10-24T02:56:46.915Z,51.216068
2022-10-24T02:57:46.921Z,51.216038
2022-10-24T02:58:46.916Z,51.216084
2022-10-24T02:59:46.896Z,51.216160
2022-10-24T03:00:46.915Z,51.216187
2022-10-24T03:01:46.935Z,51.216103
2022-10-24T03:02:47.245Z,51.216156
2022-10-24T03:03:46.900Z,51.216156
2022-10-24T03:04:46.859Z,51.216129
2022-10-24T03:05:46.867Z,51.216152
2022-10-24T03:06:46.928Z,51.216118
2022-10-24T03:07:46.843Z,51.216183
2022-10-24T03:08:46.867Z,51.216221
2022-10-24T03:09:46.836Z,51.216190
2022-10-24T03:10:46.833Z,51.216137
2022-10-24T03:11:46.823Z,51.216034
2022-10-24T03:12:47.221Z,51.216022
2022-10-24T03:13:46.835Z,51.216118
2022-10-24T03:14:46.795Z,51.216213
2022-10-24T03:16:46.792Z,51.216209
2022-10-24T03:17:47.113Z,51.216053
2022-10-24T03:18:47.691Z,51.216038
2022-10-24T03:19:46.783Z,51.216061
2022-10-24T03:20:46.771Z,51.216087
2022-10-24T03:21:46.764Z,51.216118
2022-10-24T03:22:46.751Z,51.216148
2022-10-24T03:23:46.750Z,51.216141
2022-10-24T03:24:55.255Z,51.216099
2022-10-24T03:25:48.755Z,51.216087
2022-10-24T03:26:46.719Z,51.216118
2022-10-24T03:27:47.289Z,51.216068
2022-10-24T03:28:46.716Z,51.216087
2022-10-24T03:29:46.739Z,51.216114
2022-10-24T03:30:47.703Z,51.216183
2022-10-24T03:31:46.700Z,51.216122
2022-10-24T03:32:47.057Z,51.216122
2022-10-24T03:33:46.684Z,51.216076
2022-10-24T03:34:46.681Z,51.216072
2022-10-24T03:35:46.683Z,51.216022
2022-10-24T03:36:46.671Z,51.215996
2022-10-24T03:37:46.674Z,51.216045
2022-10-24T03:38:46.664Z,51.216015
2022-10-24T03:39:46.816Z,51.215908
2022-10-24T03:41:46.639Z,51.216072
2022-10-24T03:42:47.147Z,51.216068
2022-10-24T03:43:46.619Z,51.216053
2022-10-24T03:44:46.640Z,51.216099
2022-10-24T03:45:46.615Z,51.216091
2022-10-24T03:46:46.595Z,51.216068
2022-10-24T03:47:46.652Z,51.216034
2022-10-24T03:48:46.592Z,51.216015
2022-10-24T03:49:46.816Z,51.215977
2022-10-24T03:50:46.588Z,51.215977
2022-10-24T03:51:46.576Z,51.216000
2022-10-24T03:52:46.894Z,51.215988
2022-10-24T03:53:46.552Z,51.215885
2022-10-24T03:54:46.551Z,51.215977
2022-10-24T03:55:46.540Z,51.215950
2022-10-24T03:56:46.542Z,51.216015
2022-10-24T03:57:46.821Z,51.216118
2022-10-24T03:58:46.533Z,51.216198
2022-10-24T03:59:46.520Z,51.216114
2022-10-24T04:00:46.558Z,51.216072
2022-10-24T04:01:46.597Z,51.216049
2022-10-24T04:02:46.519Z,51.216080
2022-10-24T04:03:46.497Z,51.216099
2022-10-24T04:04:46.494Z,51.216103
2022-10-24T04:05:46.500Z,51.216076
2022-10-24T04:06:46.475Z,51.216152
2022-10-24T04:07:46.931Z,51.216003
2022-10-24T04:08:46.480Z,51.215904
2022-10-24T04:09:46.455Z,51.215935
2022-10-24T04:10:46.451Z,51.215919
2022-10-24T04:11:46.445Z,51.216057
2022-10-24T04:12:46.435Z,51.216122
2022-10-24T04:13:46.436Z,51.216042
2022-10-24T04:14:46.465Z,51.216011
2022-10-24T04:15:46.423Z,51.216019
2022-10-24T04:16:46.432Z,51.216019
2022-10-24T04:17:46.614Z,51.215939
2022-10-24T04:18:46.399Z,51.215961
2022-10-24T04:19:46.396Z,51.216034
2022-10-24T04:20:46.391Z,51.216015
2022-10-24T04:21:46.396Z,51.216084
2022-10-24T04:22:46.724Z,51.216072
2022-10-24T04:23:46.372Z,51.216034
2022-10-24T04:24:46.368Z,51.216091
2022-10-24T04:25:46.363Z,51.216091
2022-10-24T04:26:46.346Z,51.216049
2022-10-24T04:27:46.352Z,51.216084
2022-10-24T04:28:46.333Z,51.216072
2022-10-24T04:29:46.324Z,51.216095
2022-10-24T04:30:46.318Z,51.216137
2022-10-24T04:31:47.327Z,51.216133
2022-10-24T04:32:46.708Z,51.216110
2022-10-24T04:34:05.217Z,51.216129
2022-10-24T04:34:46.288Z,51.216129
2022-10-24T04:35:46.283Z,51.216129
2022-10-24T04:36:46.279Z,51.216091
2022-10-24T04:37:46.295Z,51.216114
2022-10-24T04:38:46.269Z,51.216152
2022-10-24T04:39:46.268Z,51.216125
2022-10-24T04:40:46.255Z,51.216156
2022-10-24T04:41:46.257Z,51.216171
2022-10-24T04:42:46.552Z,51.216156
2022-10-24T04:43:46.243Z,51.216137
2022-10-24T04:44:46.223Z,51.216194
2022-10-24T04:45:46.223Z,51.216133
2022-10-24T04:46:50.619Z,51.216156
2022-10-24T04:47:48.365Z,51.216164
2022-10-24T04:48:46.200Z,51.216110
2022-10-24T04:49:46.188Z,51.216061
2022-10-24T04:50:46.184Z,51.216152
2022-10-24T04:51:46.182Z,51.216015
2022-10-24T04:52:46.193Z,51.216049
2022-10-24T04:53:46.167Z,51.216103
2022-10-24T04:54:46.164Z,51.216171
2022-10-24T04:55:46.151Z,51.216183
2022-10-24T04:56:46.191Z,51.216213
2022-10-24T04:57:46.634Z,51.216198
2022-10-24T04:58:46.141Z,51.216145
2022-10-24T04:59:46.129Z,51.216156
2022-10-24T05:00:46.128Z,51.216179
2022-10-24T05:01:46.209Z,51.216106
2022-10-24T05:02:46.155Z,51.216148
2022-10-24T05:03:46.099Z,51.216160
2022-10-24T05:04:46.095Z,51.216137
2022-10-24T05:05:46.091Z,51.216145
2022-10-24T05:06:46.084Z,51.216183
2022-10-24T05:07:46.519Z,51.216175
2022-10-24T05:08:46.076Z,51.216217
2022-10-24T05:09:46.063Z,51.216187
2022-10-24T05:10:46.059Z,51.216160
2022-10-24T05:11:46.051Z,51.216103
2022-10-24T05:12:46.412Z,51.216141
2022-10-24T05:13:46.056Z,51.216091
2022-10-24T05:14:46.037Z,51.216129
2022-10-24T05:15:46.032Z,51.216103
2022-10-24T05:16:46.024Z,51.216217
2022-10-24T05:17:46.019Z,51.216175
2022-10-24T05:18:46.027Z,51.216122
2022-10-24T05:19:46.008Z,51.216190
2022-10-24T05:20:46.004Z,51.216152
2022-10-24T05:21:45.995Z,51.216167
2022-10-24T05:22:46.482Z,51.216202
2022-10-24T05:23:46.238Z,51.216080
2022-10-24T05:24:45.972Z,51.216049
2022-10-24T05:25:45.968Z,51.216053
2022-10-24T05:26:45.955Z,51.216114
2022-10-24T05:27:45.959Z,51.216091
2022-10-24T05:28:50.148Z,51.216087
2022-10-24T05:29:47.940Z,51.215958
2022-10-24T05:30:45.941Z,51.215923
2022-10-24T05:31:45.931Z,51.216019
2022-10-24T05:32:46.372Z,51.216167
2022-10-24T05:33:45.940Z,51.216167
2022-10-24T05:34:45.915Z,51.216125
2022-10-24T05:35:45.911Z,51.216122
2022-10-24T05:36:45.903Z,51.216125
2022-10-24T05:37:45.890Z,51.216064
2022-10-24T05:38:45.890Z,51.216042
2022-10-24T05:39:45.897Z,51.216026
2022-10-24T05:40:45.877Z,51.215988
2022-10-24T05:41:47.158Z,51.215927
2022-10-24T05:42:46.237Z,51.216022
2022-10-24T05:43:45.850Z,51.216007
2022-10-24T05:44:45.871Z,51.216015
2022-10-24T05:45:45.893Z,51.216099
2022-10-24T05:46:45.838Z,51.216137
2022-10-24T05:47:46.081Z,51.216019
2022-10-24T05:48:45.829Z,51.216114
2022-10-24T05:49:45.818Z,51.216118
2022-10-24T05:50:45.813Z,51.216034
2022-10-24T05:51:45.830Z,51.216091
2022-10-24T05:52:47.126Z,51.216194
2022-10-24T05:53:46.796Z,51.216076
2022-10-24T05:54:55.305Z,51.216110
2022-10-24T05:55:47.784Z,51.216198
2022-10-24T05:56:45.774Z,51.216198
2022-10-24T05:57:46.234Z,51.216171
2022-10-24T05:58:45.789Z,51.216244
2022-10-24T05:59:45.766Z,51.216255
2022-10-24T06:00:48.799Z,51.216125
2022-10-24T06:01:46.870Z,51.216194
2022-10-24T06:03:45.730Z,51.216114
2022-10-24T06:04:45.721Z,51.216179
2022-10-24T06:05:45.748Z,51.216122
2022-10-24T06:06:45.706Z,51.216114
2022-10-24T06:07:45.983Z,51.216072
2022-10-24T06:08:45.678Z,51.216099
2022-10-24T06:09:45.721Z,51.216042
2022-10-24T06:10:45.693Z,51.216114
2022-10-24T06:11:45.662Z,51.216038
2022-10-24T06:12:45.977Z,51.216087
2022-10-24T06:13:45.654Z,51.215988
2022-10-24T06:14:45.650Z,51.216103
2022-10-24T06:15:45.642Z,51.216087
2022-10-24T06:16:45.631Z,51.216068
2022-10-24T06:17:45.653Z,51.216038
2022-10-24T06:18:45.626Z,51.215942
2022-10-24T06:19:45.645Z,51.215984
2022-10-24T06:20:45.617Z,51.216038
2022-10-24T06:21:45.621Z,51.216099
2022-10-24T06:22:46.082Z,51.215954
2022-10-24T06:23:45.586Z,51.215984
2022-10-24T06:24:45.579Z,51.215992
2022-10-24T06:25:45.574Z,51.215981
2022-10-24T06:26:45.582Z,51.216030
2022-10-24T06:27:45.573Z,51.216072
2022-10-24T06:28:45.545Z,51.216244
2022-10-24T06:29:45.541Z,51.216209
2022-10-24T06:30:45.542Z,51.216164
2022-10-24T06:31:45.545Z,51.216194
2022-10-24T06:32:45.828Z,51.216228
2022-10-24T06:33:45.514Z,51.216225
2022-10-24T06:34:45.517Z,51.216167
2022-10-24T06:35:45.523Z,51.216076
2022-10-24T06:36:45.518Z,51.216038
2022-10-24T06:37:47.975Z,51.215916
2022-10-24T06:38:45.485Z,51.215958
2022-10-24T06:39:45.522Z,51.216095
2022-10-24T06:40:45.469Z,51.216015
2022-10-24T06:41:45.454Z,51.216110
2022-10-24T06:42:45.454Z,51.216084
2022-10-24T06:43:45.458Z,51.216072
2022-10-24T06:44:45.437Z,51.216061
2022-10-24T06:45:45.457Z,51.216030
2022-10-24T06:46:45.425Z,51.216064
2022-10-24T06:47:46.007Z,51.216106
2022-10-24T06:48:45.413Z,51.216133
2022-10-24T06:49:45.411Z,51.216000
2022-10-24T06:50:45.401Z,51.216087
2022-10-24T06:51:45.393Z,51.216000
2022-10-24T06:52:45.383Z,51.215984
2022-10-24T06:53:45.381Z,51.216087
2022-10-24T06:54:45.383Z,51.216125
2022-10-24T06:55:45.380Z,51.216122
2022-10-24T06:56:45.373Z,51.216103
2022-10-24T06:57:45.647Z,51.216118
2022-10-24T06:58:45.345Z,51.216072
2022-10-24T06:59:45.581Z,51.216042
2022-10-24T07:00:45.386Z,51.216091
2022-10-24T07:01:45.490Z,51.216183
2022-10-24T07:02:45.589Z,51.216087
2022-10-24T07:03:45.315Z,51.216084
2022-10-24T07:04:45.299Z,51.216061
2022-10-24T07:05:45.293Z,51.216080
2022-10-24T07:06:45.297Z,51.216064
2022-10-24T07:07:45.614Z,51.216038
2022-10-24T07:08:45.278Z,51.215855
2022-10-24T07:09:45.286Z,51.215969
2022-10-24T07:10:45.254Z,51.216057
2022-10-24T07:11:45.250Z,51.216003
2022-10-24T07:12:45.556Z,51.216164
2022-10-24T07:13:45.233Z,51.216206
2022-10-24T07:14:45.242Z,51.216080
2022-10-24T07:15:45.220Z,51.216160
2022-10-24T07:16:45.205Z,51.216099
2022-10-24T07:17:45.206Z,51.216099
2022-10-24T07:18:45.189Z,51.216091
2022-10-24T07:19:45.185Z,51.216099
2022-10-24T07:20:45.180Z,51.216225
2022-10-24T07:21:45.173Z,51.216209
2022-10-24T07:22:45.392Z,51.216190
2022-10-24T07:23:45.156Z,51.216091
2022-10-24T07:24:45.149Z,51.216038
2022-10-24T07:25:45.150Z,51.215973
2022-10-24T07:26:45.137Z,51.216038
2022-10-24T07:27:45.135Z,51.216129
2022-10-24T07:28:45.123Z,51.216110
2022-10-24T07:29:45.106Z,51.215889
2022-10-24T07:30:45.112Z,51.216072
2022-10-24T07:31:45.114Z,51.216045
2022-10-24T07:32:45.383Z,51.216160
2022-10-24T07:33:45.086Z,51.216114
2022-10-24T07:34:45.082Z,51.216061
2022-10-24T07:35:45.065Z,51.215839
2022-10-24T07:36:45.068Z,51.215878
2022-10-24T07:37:45.353Z,51.216015
2022-10-24T07:38:45.110Z,51.216072
2022-10-24T07:39:45.046Z,51.216114
2022-10-24T07:40:45.033Z,51.216084
2022-10-24T07:41:45.029Z,51.216022
2022-10-24T07:42:45.005Z,51.216003
2022-10-24T07:43:45.010Z,51.216099
2022-10-24T07:44:45.033Z,51.216114
2022-10-24T07:45:49.026Z,51.216095
2022-10-24T07:46:47.004Z,51.216137
2022-10-24T07:47:45.178Z,51.215950
2022-10-24T07:48:44.968Z,51.215923
2022-10-24T07:49:44.980Z,51.215969
2022-10-24T07:50:44.953Z,51.215981
2022-10-24T07:51:44.960Z,51.215996
2022-10-24T07:52:44.954Z,51.216080
2022-10-24T07:53:44.969Z,51.215904
2022-10-24T07:54:44.921Z,51.216022
2022-10-24T07:55:44.914Z,51.216091
2022-10-24T07:56:44.904Z,51.216125
2022-10-24T07:57:45.179Z,51.216007
2022-10-24T07:58:44.884Z,51.216026
2022-10-24T07:59:44.897Z,51.215927
2022-10-24T08:00:45.627Z,51.215919
2022-10-24T08:01:45.887Z,51.215996
2022-10-24T08:02:45.006Z,51.216057
2022-10-24T08:03:44.852Z,51.215908
2022-10-24T08:04:44.860Z,51.215858
2022-10-24T08:05:44.832Z,51.215870
2022-10-24T08:06:44.842Z,51.215832
2022-10-24T08:07:55.655Z,51.215855
2022-10-24T08:08:46.824Z,51.216038
2022-10-24T08:09:44.828Z,51.216099
2022-10-24T08:10:44.797Z,51.216068
2022-10-24T08:11:44.797Z,51.216061
2022-10-24T08:12:45.089Z,51.216019
2022-10-24T08:13:44.780Z,51.216148
2022-10-24T08:14:44.780Z,51.215992
2022-10-24T08:15:44.766Z,51.216000
2022-10-24T08:16:44.748Z,51.215981
2022-10-24T08:17:44.753Z,51.216114
2022-10-24T08:18:44.740Z,51.216019
2022-10-24T08:19:44.737Z,51.215988
2022-10-24T08:20:44.733Z,51.215954
2022-10-24T08:21:44.721Z,51.215977
2022-10-24T08:22:45.001Z,51.215950
2022-10-24T08:23:44.705Z,51.215683
2022-10-24T08:24:44.721Z,51.215290
2022-10-24T08:25:44.733Z,51.215126
2022-10-24T08:26:44.686Z,51.215546
2022-10-24T08:27:44.675Z,51.215801
2022-10-24T08:28:44.656Z,51.215912
2022-10-24T08:29:44.653Z,51.215973
2022-10-24T08:30:44.657Z,51.215992
2022-10-24T08:31:44.636Z,51.216057
2022-10-24T08:32:44.929Z,51.216141
2022-10-24T08:33:44.645Z,51.216110
2022-10-24T08:34:44.629Z,51.215969
2022-10-24T08:35:44.609Z,51.215946
2022-10-24T08:36:44.601Z,51.215843
2022-10-24T08:37:44.605Z,51.215950
2022-10-24T08:38:44.614Z,51.216095
2022-10-24T08:39:44.581Z,51.216042
2022-10-24T08:40:44.569Z,51.215965
2022-10-24T08:41:44.564Z,51.216011
2022-10-24T08:42:44.907Z,51.216034
2022-10-24T08:43:44.542Z,51.215858
2022-10-24T08:44:44.561Z,51.215942
2022-10-24T08:45:44.537Z,51.215801
2022-10-24T08:46:44.524Z,51.215893
2022-10-24T08:47:44.523Z,51.215988
2022-10-24T08:48:44.516Z,51.216034
2022-10-24T08:49:46.523Z,51.216080
2022-10-24T08:50:45.502Z,51.216148
2022-10-24T08:51:44.500Z,51.216118
2022-10-24T08:52:44.757Z,51.216061
2022-10-24T08:53:44.480Z,51.216209
2022-10-24T08:54:44.486Z,51.216145
2022-10-24T08:55:49.157Z,51.216026
2022-10-24T08:56:46.478Z,51.215740
2022-10-24T08:57:44.445Z,51.215668
2022-10-24T08:58:44.441Z,51.215786
2022-10-24T08:59:44.448Z,51.215679
2022-10-24T09:00:44.440Z,51.215702
2022-10-24T09:01:44.558Z,51.215866
2022-10-24T09:02:44.942Z,51.215942
2022-10-24T09:03:55.503Z,51.216061
2022-10-24T09:04:46.403Z,51.215805
2022-10-24T09:05:44.396Z,51.216095
2022-10-24T09:06:44.385Z,51.216011
2022-10-24T09:07:44.580Z,51.216137
2022-10-24T09:08:44.632Z,51.216148
2022-10-24T09:09:44.377Z,51.216122
2022-10-24T09:10:44.381Z,51.215900
2022-10-24T09:11:44.360Z,51.215981
2022-10-24T09:12:44.349Z,51.216045
2022-10-24T09:13:44.384Z,51.216084
2022-10-24T09:14:44.338Z,51.216202
2022-10-24T09:15:44.324Z,51.216122
2022-10-24T09:16:45.321Z,51.216305
2022-10-24T09:17:44.397Z,51.216282
2022-10-24T09:18:44.312Z,51.216354
2022-10-24T09:19:44.324Z,51.216335
2022-10-24T09:20:44.316Z,51.216297
2022-10-24T09:21:44.280Z,51.216152
2022-10-24T09:22:44.458Z,51.216251
2022-10-24T09:23:44.277Z,51.216179
2022-10-24T09:24:44.299Z,51.216274
2022-10-24T09:25:44.256Z,51.216274
2022-10-24T09:26:44.265Z,51.216351
2022-10-24T09:27:44.560Z,51.216274
2022-10-24T09:28:44.241Z,51.216259
2022-10-24T09:29:44.241Z,51.216194
2022-10-24T09:30:44.244Z,51.216221
2022-10-24T09:31:44.212Z,51.216209
2022-10-24T09:32:44.219Z,51.216278
2022-10-24T09:33:44.226Z,51.216316
2022-10-24T09:34:44.220Z,51.216270
2022-10-24T09:35:44.203Z,51.216278
2022-10-24T09:36:44.200Z,51.216297
2022-10-24T09:37:47.224Z,51.216290
2022-10-24T09:38:45.171Z,51.216263
2022-10-24T09:39:44.170Z,51.216290
2022-10-24T09:40:44.193Z,51.216377
2022-10-24T09:41:44.156Z,51.216267
2022-10-24T09:42:44.145Z,51.216164
2022-10-24T09:43:44.143Z,51.216290
2022-10-24T09:44:44.146Z,51.216228
2022-10-24T09:45:44.123Z,51.216278
2022-10-24T09:46:44.131Z,51.216320
2022-10-24T09:47:44.554Z,51.216278
2022-10-24T09:48:44.110Z,51.216312
2022-10-24T09:49:44.099Z,51.216217
2022-10-24T09:50:44.099Z,51.216320
2022-10-24T09:51:44.099Z,51.216251
2022-10-24T09:52:44.079Z,51.216290
2022-10-24T09:53:44.087Z,51.216221
2022-10-24T09:54:44.066Z,51.216156
2022-10-24T09:55:44.058Z,51.216175
2022-10-24T09:56:44.083Z,51.216183
2022-10-24T09:57:44.360Z,51.216187
2022-10-24T09:58:44.041Z,51.216141
2022-10-24T09:59:44.025Z,51.216030
2022-10-24T10:00:44.026Z,51.216114
2022-10-24T10:01:44.226Z,51.216209
2022-10-24T10:02:44.017Z,51.216133
2022-10-24T10:03:44.042Z,51.216125
2022-10-24T10:04:44.005Z,51.216244
2022-10-24T10:05:43.986Z,51.216362
2022-10-24T10:06:43.989Z,51.216358
2022-10-24T10:07:44.439Z,51.216385
2022-10-24T10:08:43.965Z,51.216400
2022-10-24T10:09:43.965Z,51.216328
2022-10-24T10:10:43.961Z,51.216312
2022-10-24T10:11:49.344Z,51.216259
2022-10-24T10:12:45.950Z,51.216141
2022-10-24T10:13:43.933Z,51.216106
2022-10-24T10:14:43.937Z,51.216148
2022-10-24T10:15:43.917Z,51.216118
2022-10-24T10:16:43.957Z,51.216125
2022-10-24T10:17:44.158Z,51.216129
2022-10-24T10:18:43.915Z,51.216125
2022-10-24T10:19:43.893Z,51.216228
2022-10-24T10:20:43.894Z,51.216251
2022-10-24T10:21:43.874Z,51.216160
2022-10-24T10:22:43.862Z,51.216122
2022-10-24T10:23:43.886Z,51.216061
2022-10-24T10:24:43.864Z,51.216084
2022-10-24T10:25:43.861Z,51.216122
2022-10-24T10:26:43.850Z,51.216160
2022-10-24T10:27:44.132Z,51.216087
2022-10-24T10:28:43.837Z,51.216114
2022-10-24T10:29:43.829Z,51.216118
2022-10-24T10:30:43.845Z,51.216164
2022-10-24T10:31:43.801Z,51.216129
2022-10-24T10:32:43.809Z,51.216095
2022-10-24T10:33:43.801Z,51.216049
2022-10-24T10:34:43.783Z,51.215954
2022-10-24T10:35:43.793Z,51.215961
2022-10-24T10:36:43.781Z,51.216110
2022-10-24T10:37:44.168Z,51.216110
2022-10-24T10:38:44.789Z,51.216118
2022-10-24T10:39:45.136Z,51.216118
2022-10-24T10:40:43.766Z,51.216118
2022-10-24T10:41:43.811Z,51.216137
2022-10-24T10:42:44.062Z,51.216099
2022-10-24T10:43:43.727Z,51.216106
2022-10-24T10:44:43.717Z,51.216064
2022-10-24T10:45:43.712Z,51.216038
2022-10-24T10:46:43.721Z,51.216042
2022-10-24T10:47:43.706Z,51.216034
2022-10-24T10:48:43.700Z,51.216068
2022-10-24T10:49:43.672Z,51.216190
2022-10-24T10:50:44.673Z,51.216076
2022-10-24T10:51:43.698Z,51.216080
2022-10-24T10:52:44.195Z,51.216057
2022-10-24T10:53:43.678Z,51.216053
2022-10-24T10:54:43.641Z,51.216087
2022-10-24T10:55:43.647Z,51.215862
2022-10-24T10:56:43.629Z,51.215809
2022-10-24T10:57:43.628Z,51.215931
2022-10-24T10:58:43.623Z,51.216053
2022-10-24T10:59:43.619Z,51.216103
2022-10-24T11:00:43.592Z,51.216095
2022-10-24T11:01:43.670Z,51.216084
2022-10-24T11:02:44.739Z,51.216114
2022-10-24T11:03:43.585Z,51.216007
2022-10-24T11:04:43.608Z,51.215946
2022-10-24T11:05:43.572Z,51.215939
2022-10-24T11:06:43.565Z,51.216076
2022-10-24T11:07:43.762Z,51.216095
2022-10-24T11:08:43.553Z,51.216171
2022-10-24T11:09:43.544Z,51.216125
2022-10-24T11:10:43.531Z,51.216167
2022-10-24T11:11:43.540Z,51.216167
2022-10-24T11:12:43.528Z,51.216293
2022-10-24T11:13:43.519Z,51.216187
2022-10-24T11:14:43.515Z,51.216187
2022-10-24T11:15:43.508Z,51.216137
2022-10-24T11:16:43.489Z,51.216160
2022-10-24T11:17:43.757Z,51.216160
2022-10-24T11:18:43.477Z,51.216171
2022-10-24T11:19:43.474Z,51.216221
2022-10-24T11:20:43.472Z,51.216042
2022-10-24T11:21:43.456Z,51.215900
2022-10-24T11:22:43.464Z,51.215969
2022-10-24T11:24:44.440Z,51.216103
2022-10-24T11:25:43.433Z,51.216118
2022-10-24T11:26:43.428Z,51.216057
2022-10-24T11:27:43.743Z,51.216103
2022-10-24T11:28:43.416Z,51.216000